Time;durP1;ratioP1;P1;durP2;ratioP2;P2;SDS_P1;SDS_P2;PMS_P1;PMS_P2;Temp;Humidity;BMP_temperature;BMP_pressure;BME280_temperature;BME280_humidity;BME280_pressure;Samples;Min_cycle;Max_cycle;Signal;HPM_P1;HPM_P2
2023/08/13 00:01:34;;;;;;;24.83;5.33;;;28.80;50.80;;;;;;5069401;28;20738;-73
2023/08/13 00:04:01;;;;;;;29.67;5.93;;;28.80;50.80;;;;;;5069602;28;20272;-72
2023/08/13 00:06:28;;;;;;;30.03;5.80;;;28.80;50.80;;;;;;5069745;28;20192;-72
2023/08/13 00:08:55;;;;;;;40.40;7.10;;;28.80;50.90;;;;;;5068653;28;20210;-73
2023/08/13 00:11:22;;;;;;;26.40;5.93;;;28.80;50.90;;;;;;5069591;28;20231;-73
2023/08/13 00:13:51;;;;;;;29.13;5.53;;;28.80;50.90;;;;;;5069359;28;20191;-73
2023/08/13 00:16:17;;;;;;;25.93;5.70;;;28.80;51.50;;;;;;5067551;28;20227;-73
2023/08/13 00:18:44;;;;;;;24.77;5.30;;;28.80;50.90;;;;;;5052354;28;20665;-73
2023/08/13 00:21:12;;;;;;;27.10;5.83;;;28.80;50.90;;;;;;5048994;28;20251;-73
2023/08/13 00:23:39;;;;;;;24.10;5.30;;;28.80;50.90;;;;;;5049108;28;20210;-73
2023/08/13 00:26:06;;;;;;;30.90;5.80;;;28.80;50.90;;;;;;5049607;28;20224;-73
2023/08/13 00:28:33;;;;;;;20.33;5.00;;;28.70;50.90;;;;;;5051965;28;20215;-72
2023/08/13 00:31:02;;;;;;;19.30;4.93;;;28.70;50.90;;;;;;5048879;28;20231;-72
2023/08/13 00:33:29;;;;;;;23.77;5.13;;;28.80;51.00;;;;;;5049625;28;20279;-73
2023/08/13 00:35:55;;;;;;;28.47;5.93;;;28.70;50.90;;;;;;5062857;28;20770;-72
2023/08/13 00:38:22;;;;;;;22.60;5.07;;;28.70;50.90;;;;;;5067788;28;20251;-73
2023/08/13 00:40:49;;;;;;;26.67;6.03;;;28.70;50.90;;;;;;5068930;28;20668;-73
2023/08/13 00:43:16;;;;;;;28.73;5.73;;;28.70;51.00;;;;;;5068793;28;20206;-73
2023/08/13 00:45:44;;;;;;;20.30;5.00;;;28.70;51.00;;;;;;5068625;28;20563;-73
2023/08/13 00:48:13;;;;;;;22.83;5.70;;;28.70;51.00;;;;;;5063846;28;20226;-73
2023/08/13 00:50:40;;;;;;;24.23;5.10;;;28.70;51.00;;;;;;5068806;28;20612;-74
2023/08/13 00:53:08;;;;;;;22.87;4.93;;;28.70;51.00;;;;;;5068684;28;20203;-73
2023/08/13 00:55:35;;;;;;;26.90;5.53;;;28.70;51.00;;;;;;5066785;28;20258;-73
2023/08/13 00:58:03;;;;;;;19.47;4.40;;;28.70;51.00;;;;;;5067110;28;20752;-73
2023/08/13 01:00:31;;;;;;;22.20;5.17;;;28.60;51.00;;;;;;5068399;28;20953;-73
2023/08/13 01:02:58;;;;;;;19.77;5.17;;;28.70;51.10;;;;;;5068263;28;20211;-73
2023/08/13 01:05:37;;;;;;;23.27;5.20;;;28.60;51.00;;;;;;5068195;28;20574;-73
2023/08/13 01:08:14;;;;;;;28.00;5.47;;;28.60;51.10;;;;;;5052602;28;20295;-74
2023/08/13 01:10:47;;;;;;;23.90;5.17;;;28.60;51.00;;;;;;5048006;28;20211;-73
2023/08/13 01:13:21;;;;;;;30.07;5.77;;;28.60;51.10;;;;;;5047656;28;20294;-73
2023/08/13 01:15:50;;;;;;;28.67;5.70;;;28.60;51.10;;;;;;5064656;28;20227;-73
2023/08/13 01:18:19;;;;;;;23.67;5.50;;;28.60;51.10;;;;;;5068164;28;20246;-73
2023/08/13 01:20:47;;;;;;;22.03;5.13;;;28.60;51.10;;;;;;5068257;28;20223;-73
2023/08/13 01:23:16;;;;;;;29.60;5.93;;;28.60;51.10;;;;;;5067770;28;20278;-73
2023/08/13 01:25:48;;;;;;;25.80;5.40;;;28.60;51.10;;;;;;5060461;28;20199;-73
2023/08/13 01:28:26;;;;;;;27.70;5.73;;;28.60;51.10;;;;;;5048342;28;20214;-72
2023/08/13 01:30:56;;;;;;;32.13;5.80;;;28.60;51.10;;;;;;5046884;28;20220;-73
2023/08/13 01:33:27;;;;;;;35.80;6.50;;;28.60;51.10;;;;;;5067700;28;20569;-73
2023/08/13 01:35:56;;;;;;;33.77;6.53;;;28.60;51.10;;;;;;5066481;28;20710;-73
2023/08/13 01:38:25;;;;;;;25.23;5.33;;;28.50;51.10;;;;;;5066340;28;20207;-73
2023/08/13 01:40:52;;;;;;;24.67;5.23;;;28.50;51.10;;;;;;5066233;28;20274;-73
2023/08/13 01:43:20;;;;;;;24.27;5.37;;;28.50;51.10;;;;;;5057681;28;20290;-73
2023/08/13 01:45:47;;;;;;;22.83;5.37;;;28.50;51.10;;;;;;5047745;28;20203;-73
2023/08/13 01:48:14;;;;;;;26.63;5.80;;;28.50;51.70;;;;;;5047813;28;20212;-73
2023/08/13 01:50:41;;;;;;;40.10;6.83;;;28.50;51.10;;;;;;5046964;28;20212;-73
2023/08/13 01:53:08;;;;;;;20.33;4.77;;;28.50;51.20;;;;;;5047552;28;20246;-74
2023/08/13 01:55:36;;;;;;;29.63;5.57;;;28.50;51.20;;;;;;5046581;28;20231;-74
2023/08/13 01:58:03;;;;;;;20.53;5.43;;;28.50;51.20;;;;;;5047919;28;20528;-73
2023/08/13 02:00:30;;;;;;;18.30;4.83;;;28.50;51.20;;;;;;5047712;28;20891;-74
2023/08/13 02:02:57;;;;;;;23.10;5.30;;;28.50;51.20;;;;;;5047558;28;20303;-73
2023/08/13 02:05:24;;;;;;;37.40;6.53;;;28.50;51.20;;;;;;5046629;28;20207;-74
2023/08/13 02:07:51;;;;;;;22.03;5.07;;;28.40;51.20;;;;;;5047087;28;20282;-73
2023/08/13 02:10:18;;;;;;;25.83;5.37;;;28.50;51.30;;;;;;5047789;28;20291;-74
2023/08/13 02:12:46;;;;;;;30.47;6.13;;;28.50;51.30;;;;;;5061583;28;20246;-73
2023/08/13 02:15:13;;;;;;;17.80;4.90;;;28.40;51.20;;;;;;5066816;28;20246;-74
2023/08/13 02:17:40;;;;;;;28.83;5.43;;;28.50;51.30;;;;;;5067814;28;20203;-73
2023/08/13 02:20:10;;;;;;;27.17;5.80;;;28.40;51.20;;;;;;5067488;28;20286;-73
2023/08/13 02:22:37;;;;;;;21.47;4.77;;;28.40;51.30;;;;;;5067597;28;20207;-74
2023/08/13 02:25:04;;;;;;;22.80;5.17;;;28.40;51.30;;;;;;5051673;28;20673;-73
2023/08/13 02:27:31;;;;;;;26.97;5.70;;;28.40;51.30;;;;;;5061737;28;20243;-74
2023/08/13 02:30:00;;;;;;;21.53;5.33;;;28.40;51.30;;;;;;5067846;28;20231;-73
2023/08/13 02:32:27;;;;;;;27.47;5.67;;;28.40;51.30;;;;;;5067688;28;20194;-74
2023/08/13 02:34:53;;;;;;;20.83;4.80;;;28.40;51.30;;;;;;5055990;28;20196;-74
2023/08/13 02:37:21;;;;;;;25.53;5.27;;;28.40;51.30;;;;;;5058856;28;20922;-73
2023/08/13 02:39:47;;;;;;;33.90;6.37;;;28.40;51.30;;;;;;5067084;28;20245;-73
2023/08/13 02:42:15;;;;;;;24.33;5.63;;;28.40;51.40;;;;;;5049651;28;20203;-72
2023/08/13 02:44:41;;;;;;;36.70;6.60;;;28.40;51.40;;;;;;5053969;28;20196;-72
2023/08/13 02:47:10;;;;;;;22.97;5.00;;;28.40;51.30;;;;;;5053015;28;20207;-71
2023/08/13 02:49:37;;;;;;;31.10;5.93;;;28.40;51.30;;;;;;5070767;28;20846;-72
2023/08/13 02:52:04;;;;;;;31.53;6.20;;;28.40;51.40;;;;;;5068466;28;20239;-72
2023/08/13 02:54:31;;;;;;;24.67;5.13;;;28.30;51.30;;;;;;5064044;28;20262;-72
2023/08/13 02:56:59;;;;;;;28.00;5.83;;;28.30;51.30;;;;;;5050511;28;20323;-72
2023/08/13 02:59:26;;;;;;;25.10;5.37;;;28.30;51.30;;;;;;5065029;28;20605;-72
2023/08/13 03:01:53;;;;;;;28.40;5.50;;;28.30;51.30;;;;;;5070363;28;20192;-72
2023/08/13 03:04:21;;;;;;;22.73;5.33;;;28.40;51.50;;;;;;5069723;28;20203;-72
2023/08/13 03:06:48;;;;;;;31.70;5.80;;;28.30;51.40;;;;;;5068414;28;20195;-72
2023/08/13 03:09:20;;;;;;;30.00;6.03;;;28.30;51.40;;;;;;5070539;28;20323;-72
2023/08/13 03:11:47;;;;;;;31.57;5.77;;;28.30;51.40;;;;;;5070614;28;20210;-72
2023/08/13 03:14:15;;;;;;;25.97;5.47;;;28.30;51.40;;;;;;5058220;28;20251;-72
2023/08/13 03:16:42;;;;;;;26.47;5.50;;;28.30;51.40;;;;;;5050430;28;20307;-73
2023/08/13 03:19:09;;;;;;;32.33;5.87;;;28.30;51.40;;;;;;5058792;28;20199;-73
2023/08/13 03:21:37;;;;;;;29.73;5.77;;;28.30;51.50;;;;;;5068112;28;20245;-73
2023/08/13 03:24:05;;;;;;;29.60;5.70;;;28.30;51.50;;;;;;5052327;28;20208;-72
2023/08/13 03:26:32;;;;;;;21.37;4.93;;;28.30;51.40;;;;;;5057282;28;20288;-73
2023/08/13 03:28:59;;;;;;;25.73;5.33;;;28.30;51.50;;;;;;5063561;28;20339;-72
2023/08/13 03:31:26;;;;;;;21.43;4.93;;;28.30;51.50;;;;;;5050273;28;20295;-72
2023/08/13 03:33:53;;;;;;;32.80;5.80;;;28.30;51.50;;;;;;5050244;28;20526;-72
2023/08/13 03:36:20;;;;;;;21.57;5.07;;;28.20;51.50;;;;;;5050487;28;20226;-72
2023/08/13 03:38:48;;;;;;;26.40;5.77;;;28.20;51.50;;;;;;5054143;28;20302;-73
2023/08/13 03:41:15;;;;;;;38.83;7.20;;;28.30;51.50;;;;;;5066325;28;20670;-73
2023/08/13 03:43:42;;;;;;;23.50;5.23;;;28.20;51.50;;;;;;5049987;28;20200;-72
2023/08/13 03:46:09;;;;;;;27.90;5.47;;;28.30;51.60;;;;;;5050108;28;20283;-73
2023/08/13 03:48:36;;;;;;;30.57;5.77;;;28.20;51.60;;;;;;5063735;28;20200;-73
2023/08/13 03:51:04;;;;;;;30.90;6.00;;;28.30;51.60;;;;;;5069719;28;20286;-72
2023/08/13 03:53:31;;;;;;;29.23;5.93;;;28.20;51.50;;;;;;5069425;28;20210;-73
2023/08/13 03:55:59;;;;;;;31.67;6.27;;;28.20;51.50;;;;;;5069325;28;20235;-73
2023/08/13 03:58:26;;;;;;;42.07;6.93;;;28.20;51.60;;;;;;5067960;28;20581;-73
2023/08/13 04:00:53;;;;;;;33.40;6.03;;;28.20;51.60;;;;;;5049307;28;20215;-72
2023/08/13 04:03:21;;;;;;;23.83;5.23;;;28.20;51.60;;;;;;5053027;28;20250;-73
2023/08/13 04:05:47;;;;;;;65.53;8.77;;;28.20;51.60;;;;;;5050104;28;20648;-73
2023/08/13 04:08:14;;;;;;;24.47;5.20;;;28.20;51.60;;;;;;5049476;28;20203;-73
2023/08/13 04:10:41;;;;;;;23.77;5.17;;;28.20;51.60;;;;;;5068294;28;20287;-73
2023/08/13 04:13:10;;;;;;;38.47;6.37;;;28.20;51.60;;;;;;5069692;28;20303;-73
2023/08/13 04:15:37;;;;;;;34.07;6.37;;;28.20;51.70;;;;;;5069299;28;20287;-73
2023/08/13 04:18:04;;;;;;;34.27;6.20;;;28.20;51.70;;;;;;5069273;28;20223;-73
2023/08/13 04:20:31;;;;;;;55.37;8.20;;;28.20;51.70;;;;;;5066206;28;20263;-73
2023/08/13 04:22:58;;;;;;;25.20;5.30;;;28.20;51.70;;;;;;5050054;28;20242;-73
2023/08/13 04:25:26;;;;;;;26.70;5.47;;;28.20;51.70;;;;;;5049316;28;20204;-73
2023/08/13 04:27:53;;;;;;;31.33;5.70;;;28.20;51.70;;;;;;5056359;28;20203;-73
2023/08/13 04:30:21;;;;;;;25.37;5.20;;;28.20;51.80;;;;;;5067042;28;20857;-73
2023/08/13 04:32:54;;;;;;;24.07;4.80;;;28.10;51.70;;;;;;5069004;28;20202;-73
2023/08/13 04:35:21;;;;;;;28.13;6.00;;;28.10;51.70;;;;;;5066507;28;20276;-73
2023/08/13 04:37:48;;;;;;;26.57;5.40;;;28.10;51.70;;;;;;5069013;28;20262;-73
2023/08/13 04:40:15;;;;;;;24.50;5.27;;;28.20;51.80;;;;;;5061278;28;20207;-73
2023/08/13 04:42:42;;;;;;;55.63;8.07;;;28.10;51.70;;;;;;5062965;28;20235;-73
2023/08/13 04:45:12;;;;;;;32.30;6.13;;;28.10;51.70;;;;;;5049964;28;20204;-72
2023/08/13 04:47:40;;;;;;;23.48;5.93;;;28.10;51.80;;;;;;5047916;28;20495;-71
2023/08/13 04:50:08;;;;;;;22.67;5.10;;;28.00;52.30;;;;;;5059702;28;20955;-71
2023/08/13 04:52:35;;;;;;;17.97;4.57;;;28.00;52.20;;;;;;5062212;28;20226;-72
2023/08/13 04:55:02;;;;;;;50.33;7.37;;;28.00;52.00;;;;;;5048729;28;20222;-73
2023/08/13 04:57:29;;;;;;;28.80;5.53;;;28.10;52.00;;;;;;5068512;28;20254;-71
2023/08/13 04:59:56;;;;;;;18.13;4.57;;;28.10;51.90;;;;;;5066300;28;20202;-72
2023/08/13 05:02:23;;;;;;;19.90;4.87;;;28.10;51.90;;;;;;5065006;28;20331;-71
2023/08/13 05:04:51;;;;;;;28.93;5.43;;;28.10;51.90;;;;;;5055596;28;20200;-73
2023/08/13 05:07:18;;;;;;;23.63;5.20;;;28.10;51.80;;;;;;5047407;28;20317;-73
2023/08/13 05:09:45;;;;;;;22.90;5.27;;;28.10;51.90;;;;;;5054107;28;20249;-72
2023/08/13 05:12:12;;;;;;;20.80;4.63;;;28.10;51.90;;;;;;5068239;28;20219;-71
2023/08/13 05:14:39;;;;;;;21.90;5.13;;;28.10;51.80;;;;;;5067749;28;20205;-70
2023/08/13 05:17:18;;;;;;;25.87;5.63;;;28.10;51.80;;;;;;5068385;28;20628;-73
2023/08/13 05:19:45;;;;;;;29.73;5.60;;;28.00;51.80;;;;;;5062193;28;20196;-70
2023/08/13 05:22:14;;;;;;;24.67;5.00;;;28.00;51.80;;;;;;5064906;28;20210;-72
2023/08/13 05:24:40;;;;;;;30.40;5.80;;;28.10;51.90;;;;;;5067958;28;20246;-72
2023/08/13 05:27:07;;;;;;;22.83;4.70;;;28.10;51.90;;;;;;5065991;28;20287;-72
2023/08/13 05:29:34;;;;;;;31.43;5.87;;;28.00;52.50;;;;;;5066377;28;20223;-71
2023/08/13 05:32:02;;;;;;;22.43;4.73;;;28.00;51.90;;;;;;5068291;28;20287;-72
2023/08/13 05:34:28;;;;;;;24.63;5.17;;;28.00;51.90;;;;;;5068184;28;20209;-72
2023/08/13 05:36:55;;;;;;;59.47;8.40;;;28.00;51.90;;;;;;5054072;28;20324;-71
2023/08/13 05:39:24;;;;;;;42.07;6.77;;;28.00;52.00;;;;;;5066143;28;20234;-73
2023/08/13 05:41:51;;;;;;;62.93;8.63;;;28.00;52.60;;;;;;5065227;28;20211;-73
2023/08/13 05:44:18;;;;;;;21.97;4.87;;;28.00;52.00;;;;;;5065171;28;20234;-71
2023/08/13 05:46:45;;;;;;;22.97;5.13;;;28.00;52.00;;;;;;5050557;28;20294;-72
2023/08/13 05:49:12;;;;;;;24.03;5.30;;;28.00;52.00;;;;;;5048290;28;20188;-73
2023/08/13 05:51:39;;;;;;;24.53;5.00;;;28.00;52.00;;;;;;5066977;28;20319;-73
2023/08/13 05:54:08;;;;;;;20.77;4.70;;;28.00;52.60;;;;;;5067886;28;20276;-74
2023/08/13 05:56:37;;;;;;;26.40;5.17;;;28.00;52.10;;;;;;5067558;28;20224;-73
2023/08/13 05:59:04;;;;;;;29.73;5.77;;;28.00;52.10;;;;;;5051005;28;20214;-72
2023/08/13 06:01:31;;;;;;;23.83;4.90;;;28.00;52.10;;;;;;5065649;28;20203;-72
2023/08/13 06:03:58;;;;;;;27.90;5.57;;;28.00;52.10;;;;;;5067877;28;20674;-73
2023/08/13 06:06:25;;;;;;;21.47;5.03;;;28.00;52.10;;;;;;5064011;28;20290;-73
2023/08/13 06:08:52;;;;;;;30.80;5.90;;;28.00;52.10;;;;;;5051347;28;20282;-71
2023/08/13 06:11:19;;;;;;;41.73;6.83;;;28.00;52.10;;;;;;5050366;28;20283;-71
2023/08/13 06:13:47;;;;;;;33.03;5.83;;;28.00;52.10;;;;;;5047700;28;20291;-73
2023/08/13 06:16:14;;;;;;;27.20;5.57;;;28.00;52.10;;;;;;5048300;28;20232;-71
2023/08/13 06:18:41;;;;;;;31.70;5.80;;;28.00;52.20;;;;;;5051371;28;20319;-70
2023/08/13 06:21:08;;;;;;;34.03;5.90;;;28.00;52.20;;;;;;5065250;28;20286;-71
2023/08/13 06:23:35;;;;;;;28.27;5.60;;;28.00;52.20;;;;;;5071144;28;20733;-71
2023/08/13 06:26:02;;;;;;;44.23;7.23;;;28.00;52.20;;;;;;5057499;28;20210;-71
2023/08/13 06:28:29;;;;;;;56.60;8.07;;;28.00;52.20;;;;;;5051651;28;20192;-71
2023/08/13 06:30:57;;;;;;;22.50;5.13;;;28.00;52.20;;;;;;5069724;28;20736;-71
2023/08/13 06:33:24;;;;;;;22.53;5.50;;;28.00;52.30;;;;;;5071561;28;20273;-71
2023/08/13 06:35:51;;;;;;;23.40;5.20;;;28.00;52.20;;;;;;5071648;28;20294;-71
2023/08/13 06:38:18;;;;;;;30.17;5.87;;;28.00;52.30;;;;;;5071278;28;20219;-71
2023/08/13 06:40:46;;;;;;;25.33;5.10;;;28.00;52.30;;;;;;5070035;28;20225;-70
2023/08/13 06:43:13;;;;;;;56.87;8.37;;;28.00;52.30;;;;;;5069167;28;20203;-70
2023/08/13 06:45:40;;;;;;;27.90;5.57;;;28.00;52.30;;;;;;5069500;28;20203;-71
2023/08/13 06:48:09;;;;;;;61.80;8.67;;;28.00;52.30;;;;;;5068886;28;20195;-71
2023/08/13 06:50:36;;;;;;;24.77;5.27;;;28.00;52.30;;;;;;5060087;28;20202;-71
2023/08/13 06:53:03;;;;;;;26.37;5.33;;;28.00;52.30;;;;;;5056436;28;20350;-71
2023/08/13 06:55:30;;;;;;;21.27;5.13;;;28.00;52.40;;;;;;5060197;28;20298;-71
2023/08/13 06:57:57;;;;;;;25.03;5.13;;;28.00;53.00;;;;;;5070789;28;20356;-71
2023/08/13 07:00:24;;;;;;;24.47;5.23;;;28.00;52.40;;;;;;5071031;28;20401;-71
2023/08/13 07:02:51;;;;;;;23.73;5.03;;;28.00;52.40;;;;;;5070812;28;20242;-71
2023/08/13 07:05:20;;;;;;;20.83;5.00;;;28.00;52.50;;;;;;5068868;28;20257;-70
2023/08/13 07:07:48;;;;;;;22.53;4.93;;;28.00;52.50;;;;;;5070979;28;20231;-71
2023/08/13 07:10:15;;;;;;;26.43;5.23;;;28.00;52.40;;;;;;5069259;28;20728;-71
2023/08/13 07:12:42;;;;;;;20.57;4.77;;;28.00;52.40;;;;;;5070350;28;20698;-70
2023/08/13 07:15:10;;;;;;;21.90;5.00;;;28.00;52.40;;;;;;5068810;28;20208;-70
2023/08/13 07:17:37;;;;;;;25.93;5.13;;;28.00;52.40;;;;;;5057985;28;20231;-71
2023/08/13 07:20:09;;;;;;;49.73;7.67;;;28.00;52.50;;;;;;5050088;28;20521;-70
2023/08/13 07:22:38;;;;;;;58.00;8.27;;;28.00;52.50;;;;;;5063728;28;20195;-68
2023/08/13 07:26:03;;;;;;;29.37;6.30;;;28.00;52.00;;;;;;5101786;27;20607;-71
2023/08/13 07:28:32;;;;;;;42.10;7.80;;;28.00;52.60;;;;;;5099575;28;20737;-68
2023/08/13 07:30:59;;;;;;;23.13;5.73;;;28.00;52.60;;;;;;5103000;28;20229;-75
2023/08/13 07:33:26;;;;;;;20.70;5.13;;;28.00;52.60;;;;;;5095117;28;20190;-73
2023/08/13 07:35:53;;;;;;;24.30;5.57;;;28.00;52.60;;;;;;5105658;28;20201;-72
2023/08/13 07:38:20;;;;;;;54.63;8.60;;;28.00;52.60;;;;;;5102318;28;20257;-69
2023/08/13 07:40:47;;;;;;;17.77;5.20;;;28.00;52.60;;;;;;5103586;28;20285;-71
2023/08/13 07:43:15;;;;;;;26.87;6.10;;;28.10;52.60;;;;;;5105085;28;20819;-72
2023/08/13 07:45:42;;;;;;;17.27;5.00;;;28.00;52.60;;;;;;5104073;28;20415;-71
2023/08/13 07:48:10;;;;;;;28.60;6.00;;;28.00;52.60;;;;;;5104978;28;20206;-74
2023/08/13 07:50:37;;;;;;;23.83;5.67;;;28.10;52.60;;;;;;5087201;28;20261;-71
2023/08/13 07:53:05;;;;;;;22.17;5.40;;;28.00;52.60;;;;;;5084245;28;20241;-72
2023/08/13 07:55:32;;;;;;;30.47;5.97;;;28.00;52.60;;;;;;5100050;28;20556;-72
2023/08/13 07:57:59;;;;;;;36.07;6.70;;;28.00;52.60;;;;;;5088408;28;20584;-71
2023/08/13 08:00:27;;;;;;;30.80;6.43;;;28.10;52.70;;;;;;5086265;28;20226;-72
2023/08/13 08:02:54;;;;;;;28.90;6.17;;;28.10;52.60;;;;;;5092694;28;20205;-72
2023/08/13 08:05:21;;;;;;;27.57;6.17;;;28.10;52.60;;;;;;5100163;28;20258;-70
2023/08/13 08:07:48;;;;;;;41.00;7.10;;;28.10;52.70;;;;;;5086364;28;20298;-67
2023/08/13 08:10:15;;;;;;;23.90;6.03;;;28.10;52.60;;;;;;5091292;28;20205;-72
2023/08/13 08:12:42;;;;;;;38.27;8.43;;;28.10;52.60;;;;;;5084035;28;20293;-67
2023/08/13 08:17:30;;;;;;;49.80;9.20;;;28.10;52.10;;;;;;5073195;27;20653;-68
2023/08/13 08:19:59;;;;;;;26.60;7.00;;;28.20;52.70;;;;;;5073654;28;20285;-68
2023/08/13 08:22:26;;;;;;;41.13;8.00;;;28.20;52.70;;;;;;5084504;28;20210;-69
2023/08/13 08:24:54;;;;;;;41.83;7.67;;;28.10;52.60;;;;;;5080647;28;20204;-69
2023/08/13 08:27:21;;;;;;;26.57;6.10;;;28.10;52.60;;;;;;5076289;28;20282;-69
2023/08/13 08:29:48;;;;;;;24.33;5.63;;;28.20;52.70;;;;;;5063997;28;20222;-69
2023/08/13 08:32:15;;;;;;;30.93;6.77;;;28.20;52.70;;;;;;5084122;28;20234;-69
2023/08/13 08:34:44;;;;;;;23.27;6.07;;;28.10;52.60;;;;;;5081876;28;20651;-70
2023/08/13 08:37:13;;;;;;;28.93;5.90;;;28.20;52.70;;;;;;5058619;28;20638;-68
2023/08/13 08:39:41;;;;;;;36.70;6.90;;;28.10;52.60;;;;;;5066594;28;20207;-70
2023/08/13 08:42:10;;;;;;;27.33;6.07;;;28.10;52.60;;;;;;5060254;28;20241;-73
2023/08/13 08:44:42;;;;;;;25.67;5.80;;;28.10;52.60;;;;;;5063796;28;20722;-67
2023/08/13 08:47:10;;;;;;;29.40;6.43;;;28.10;52.60;;;;;;5056784;28;20204;-67
2023/08/13 08:49:37;;;;;;;30.57;6.27;;;28.10;52.60;;;;;;5064411;28;20280;-67
2023/08/13 08:52:07;;;;;;;26.07;5.97;;;28.10;52.60;;;;;;5064191;28;20282;-66
2023/08/13 08:54:39;;;;;;;28.90;6.40;;;28.10;52.60;;;;;;5063905;28;20628;-67
2023/08/13 08:57:06;;;;;;;25.87;6.43;;;28.10;52.60;;;;;;5076308;28;20231;-66
2023/08/13 08:59:33;;;;;;;28.27;5.73;;;28.10;52.60;;;;;;5080271;28;20211;-67
2023/08/13 09:02:00;;;;;;;39.50;7.13;;;28.10;52.60;;;;;;5078320;28;20655;-67
2023/08/13 09:04:27;;;;;;;31.50;6.20;;;28.10;52.70;;;;;;5078564;28;20287;-67
2023/08/13 09:06:56;;;;;;;22.67;5.80;;;28.10;52.60;;;;;;5082920;28;20278;-67
2023/08/13 09:09:25;;;;;;;23.87;5.67;;;28.10;52.60;;;;;;5083420;28;20663;-67
2023/08/13 09:11:53;;;;;;;25.23;5.67;;;28.00;52.60;;;;;;5083319;28;20856;-70
2023/08/13 09:14:21;;;;;;;26.43;6.00;;;28.10;52.60;;;;;;5074285;28;20205;-67
2023/08/13 09:16:49;;;;;;;42.97;7.10;;;28.00;52.60;;;;;;5075537;28;20320;-67
2023/08/13 09:19:16;;;;;;;25.97;6.10;;;28.00;52.60;;;;;;5083130;28;20199;-66
2023/08/13 09:21:50;;;;;;;23.07;5.60;;;28.00;53.20;;;;;;5082299;28;20207;-67
2023/08/13 09:24:17;;;;;;;23.30;5.63;;;28.00;52.60;;;;;;5083211;28;20301;-70
2023/08/13 09:26:46;;;;;;;30.33;6.10;;;28.00;52.60;;;;;;5077992;28;20286;-67
2023/08/13 09:29:13;;;;;;;40.53;6.90;;;28.00;52.60;;;;;;5063866;28;20239;-67
2023/08/13 09:31:41;;;;;;;23.23;5.17;;;28.00;52.60;;;;;;5048334;28;20258;-67
2023/08/13 09:34:08;;;;;;;28.10;6.10;;;27.90;52.50;;;;;;5065740;28;20286;-67
2023/08/13 09:36:35;;;;;;;20.03;5.20;;;28.00;52.60;;;;;;5063695;28;20336;-67
2023/08/13 09:39:02;;;;;;;33.37;6.13;;;27.90;52.60;;;;;;5062905;28;20258;-67
2023/08/13 09:41:30;;;;;;;22.57;5.07;;;27.90;52.60;;;;;;5050357;28;20204;-68
2023/08/13 09:44:05;;;;;;;26.30;5.70;;;28.00;52.60;;;;;;5053225;28;20960;-70
2023/08/13 09:46:34;;;;;;;23.30;5.17;;;27.90;52.70;;;;;;5068683;28;20209;-68
2023/08/13 09:49:04;;;;;;;42.67;7.30;;;27.90;52.70;;;;;;5039321;28;20219;-66
2023/08/13 09:51:33;;;;;;;21.17;5.37;;;27.90;52.70;;;;;;5050147;28;20208;-67
2023/08/13 09:54:08;;;;;;;24.10;5.17;;;27.90;52.70;;;;;;5050189;28;20279;-67
2023/08/13 09:56:37;;;;;;;31.50;6.23;;;27.90;52.80;;;;;;5049146;28;20267;-67
2023/08/13 09:59:06;;;;;;;25.93;5.47;;;27.90;52.90;;;;;;5050048;28;20195;-67
2023/08/13 10:01:34;;;;;;;22.00;5.20;;;27.90;52.80;;;;;;5050056;28;20947;-66
2023/08/13 10:04:01;;;;;;;29.40;5.87;;;27.90;52.80;;;;;;5050221;28;20331;-70
2023/08/13 10:06:28;;;;;;;27.73;5.77;;;27.80;52.80;;;;;;5049698;28;20208;-69
2023/08/13 10:08:56;;;;;;;27.60;5.27;;;27.80;52.80;;;;;;5049758;28;20291;-67
2023/08/13 10:11:23;;;;;;;24.77;5.30;;;27.90;52.90;;;;;;5050257;28;20298;-66
2023/08/13 10:13:51;;;;;;;25.47;5.50;;;27.80;52.80;;;;;;5043070;28;20200;-67
2023/08/13 10:16:21;;;;;;;26.87;5.60;;;27.80;52.80;;;;;;5049269;28;20228;-67
2023/08/13 10:18:48;;;;;;;26.60;5.60;;;27.80;52.90;;;;;;5049341;28;20680;-66
2023/08/13 10:21:15;;;;;;;25.80;5.50;;;27.80;52.90;;;;;;5049675;28;20656;-67
2023/08/13 10:23:42;;;;;;;20.80;4.60;;;27.80;53.00;;;;;;5049542;28;20211;-67
2023/08/13 10:26:09;;;;;;;22.63;4.93;;;27.80;53.00;;;;;;5053441;28;20290;-66
2023/08/13 10:28:36;;;;;;;31.27;5.57;;;27.80;53.00;;;;;;5065485;28;20204;-67
2023/08/13 10:31:33;;;;;;;31.17;5.80;;;27.80;53.00;;;;;;5063830;28;20302;-66
2023/08/13 10:34:08;;;;;;;46.00;7.00;;;27.80;53.00;;;;;;5067905;28;20265;-66
2023/08/13 10:36:46;;;;;;;25.00;4.97;;;27.80;53.00;;;;;;5065108;28;20233;-66
2023/08/13 10:39:32;;;;;;;41.97;6.93;;;27.70;52.90;;;;;;5066783;28;20223;-67
2023/08/13 10:41:59;;;;;;;26.57;5.00;;;27.80;53.00;;;;;;5057748;28;20294;-69
2023/08/13 10:44:29;;;;;;;27.80;5.37;;;27.70;52.90;;;;;;5059371;28;20215;-69
2023/08/13 10:46:59;;;;;;;37.30;6.37;;;27.70;52.90;;;;;;5062909;28;20208;-69
2023/08/13 10:49:27;;;;;;;43.00;7.13;;;27.70;52.90;;;;;;5064334;28;20203;-71
2023/08/13 10:51:54;;;;;;;23.80;5.00;;;27.70;52.90;;;;;;5037789;28;20315;-66
2023/08/13 10:54:24;;;;;;;25.00;5.10;;;27.70;52.90;;;;;;5048718;28;20208;-73
2023/08/13 10:56:57;;;;;;;24.07;4.87;;;27.70;53.00;;;;;;5048953;28;20322;-67
2023/08/13 10:59:31;;;;;;;27.23;5.00;;;27.60;52.90;;;;;;5049146;28;20289;-66
2023/08/13 11:02:16;;;;;;;18.10;4.57;;;27.60;52.90;;;;;;5048609;28;20213;-70
2023/08/13 11:04:46;;;;;;;20.63;4.50;;;27.70;53.00;;;;;;5048007;28;20282;-74
2023/08/13 11:07:14;;;;;;;25.83;5.23;;;27.60;53.00;;;;;;5048730;28;20303;-74
2023/08/13 11:09:43;;;;;;;43.17;6.53;;;27.60;53.00;;;;;;5047764;28;20220;-71
2023/08/13 11:12:11;;;;;;;29.67;5.43;;;27.60;53.10;;;;;;5050311;28;20530;-68
2023/08/13 11:14:38;;;;;;;37.37;6.13;;;27.60;53.20;;;;;;5066402;28;20199;-69
2023/08/13 11:17:05;;;;;;;29.23;5.87;;;27.60;53.50;;;;;;5064575;28;20326;-68
2023/08/13 11:19:34;;;;;;;20.63;5.00;;;27.60;53.60;;;;;;5068584;28;20200;-70
2023/08/13 11:22:02;;;;;;;29.83;5.47;;;27.60;54.30;;;;;;5035061;28;20282;-71
2023/08/13 11:24:32;;;;;;;26.27;5.30;;;27.70;54.30;;;;;;5068595;28;20199;-69
2023/08/13 11:26:59;;;;;;;22.67;4.97;;;27.80;54.60;;;;;;5061481;28;20199;-70
2023/08/13 11:29:28;;;;;;;35.17;5.97;;;27.90;54.80;;;;;;5058988;28;20200;-69
2023/08/13 11:31:55;;;;;;;20.77;4.73;;;28.00;55.40;;;;;;5035643;28;20211;-68
2023/08/13 11:34:21;;;;;;;29.47;5.53;;;28.20;55.00;;;;;;5044044;28;20204;-75
2023/08/13 11:36:51;;;;;;;24.30;5.10;;;28.40;55.10;;;;;;5051793;28;20227;-73
2023/08/13 11:39:19;;;;;;;21.87;4.77;;;28.60;55.10;;;;;;5055521;28;20275;-70
2023/08/13 11:41:47;;;;;;;22.67;4.73;;;28.80;55.30;;;;;;5044503;28;20580;-72
2023/08/13 11:44:14;;;;;;;21.27;4.70;;;29.00;55.20;;;;;;5065579;28;20222;-74
2023/08/13 11:47:00;;;;;;;24.20;5.20;;;29.20;54.80;;;;;;5052581;28;20266;-71
2023/08/13 11:49:27;;;;;;;23.83;4.93;;;29.40;54.80;;;;;;5028140;28;20232;-73
2023/08/13 11:51:58;;;;;;;26.07;5.03;;;29.60;54.60;;;;;;5044531;28;20215;-74
2023/08/13 11:54:25;;;;;;;18.93;4.93;;;29.80;54.10;;;;;;5064043;28;20253;-69
2023/08/13 11:56:54;;;;;;;20.77;4.67;;;30.00;53.80;;;;;;5036622;28;20228;-69
2023/08/13 11:59:25;;;;;;;47.30;7.10;;;30.20;53.70;;;;;;5047526;28;20272;-70
2023/08/13 12:01:54;;;;;;;26.67;5.37;;;30.30;53.30;;;;;;5047791;28;20223;-67
2023/08/13 12:04:22;;;;;;;22.07;4.77;;;30.40;53.00;;;;;;5047829;28;20203;-67
2023/08/13 12:06:51;;;;;;;31.90;5.73;;;30.50;52.80;;;;;;5047669;28;20214;-68
2023/08/13 12:09:20;;;;;;;27.92;5.40;;;30.50;52.60;;;;;;5047933;28;20204;-71
2023/08/13 12:11:47;;;;;;;26.75;5.10;;;30.60;52.40;;;;;;5046873;28;20286;-68
2023/08/13 12:14:14;;;;;;;24.50;5.40;;;30.60;52.00;;;;;;5047510;28;20198;-68
2023/08/13 12:16:41;;;;;;;30.87;6.17;;;30.60;51.60;;;;;;5047339;28;20281;-69
2023/08/13 12:19:08;;;;;;;29.97;5.70;;;30.60;51.30;;;;;;5047938;28;20299;-67
2023/08/13 12:21:36;;;;;;;26.53;5.43;;;30.60;51.30;;;;;;5047379;28;20273;-68
2023/08/13 12:24:04;;;;;;;30.37;5.57;;;30.50;51.00;;;;;;5047615;28;20189;-69
2023/08/13 12:26:33;;;;;;;28.50;5.73;;;30.40;50.80;;;;;;5049754;28;20203;-68
2023/08/13 12:29:02;;;;;;;32.73;6.07;;;30.30;50.60;;;;;;5064515;28;20214;-68
2023/08/13 12:31:30;;;;;;;39.90;6.40;;;30.20;50.60;;;;;;5060223;28;20976;-68
2023/08/13 12:33:57;;;;;;;33.13;5.77;;;30.10;50.70;;;;;;5064823;28;20214;-73
2023/08/13 12:36:24;;;;;;;26.33;5.03;;;30.00;50.50;;;;;;5058283;28;20973;-67
2023/08/13 12:38:50;;;;;;;49.67;7.73;;;29.80;50.40;;;;;;5066036;28;20219;-68
2023/08/13 12:41:18;;;;;;;46.67;6.97;;;29.70;50.60;;;;;;5064529;28;20242;-70
2023/08/13 12:43:47;;;;;;;27.60;5.27;;;29.50;50.60;;;;;;5057338;28;20208;-68